Durham, CT

1:58 AM EST on January 28, 2015 (GMT -0500)
Old Blue Hills Rd | Change Station
CLOSE
Current Station
Personal Weather Station
Location: Durham, CT
Elevation: 381 ft
Nearby Weather Stations

Elev 381 ft 41.46 °N, 72.67 °W | Updated 31 seconds ago

Snow
Snow
12.7 °F
Feels Like 13 °F
N
3.0
Wind Variable Wind from NNW
Gusts 3.0 mph

Today
High -- | Low -- °F
--% Chance of Precip.
Yesterday
High -- | Low -- °F
Precip. -- in
7:06 AM 5:01 PM
First Quarter, 62% visible
Pressure 29.80 in
Visibility 5.0 miles
Clouds Overcast 4500 ft
Windchill 13 °F
Dew Point 10 °F
Humidity 89%
Rainfall 0.00 in
Snow Depth Not available.
UV 0 out of 12
Pollen .10 out of 12
Air Quality Not available.
Flu Activity Not available.
METAR KMMK 280553Z AUTO 34010KT 5SM -SN OVC045 M11/M15 A2979 RMK AO2 SLP090 P0000 60000 T11061150 11089 21106 50008 TSNO $

More Conditions Fewer Conditions

Pressure 29.80 in
Visibility 5.0 miles
Clouds Overcast 4500 ft
Windchill 13 °F
Dew Point 10 °F
Humidity 89%
Rainfall 0.00 in
Snow Depth Not available.
UV 0 out of 12
Pollen .10 out of 12
Air Quality Not available.
Flu Activity Not available.
METAR KMMK 280553Z AUTO 34010KT 5SM -SN OVC045 M11/M15 A2979 RMK AO2 SLP090 P0000 60000 T11061150 11089 21106 50008 TSNO $

More Conditions Fewer Conditions

10-Day Weather Forecast

Almanac

Astronomy

Jan. 28, 2015 Rise Set
Actual Time
Civil Twilight
Nautical Twilight
Astronomical Twilight
Moon
Length of Visible Light
Length of Day
Tomorrow will be .
, % of the Moon is Illuminated

Today's Extremes

State Highs State Lows

Community

WunderPhotos

Upload Photos

1,791,114 photos uploaded!

WunderBlogs® & News

Nearby

Air Quality

  Air Quality AQ Index Pollutant
Not available.

Snow Depth

Station Depth Elevation

Earthquake Activity

City Distance Mag. Time & Date
Minimum magnitude displayed is 2.5.

Coastal Water Temperatures

Place Temperature

Nearby Weather Stations